createdAt,value
2023-03-05T00:02:34.917Z,12.75
2023-03-05T00:07:37.862Z,14.90
2023-03-05T00:12:40.468Z,16.42
2023-03-05T00:17:43.101Z,13.35
2023-03-05T00:22:45.849Z,14.57
2023-03-05T00:27:48.667Z,13.23
2023-03-05T00:32:51.417Z,16.48
2023-03-05T00:37:54.570Z,13.20
2023-03-05T00:42:57.378Z,15.20
2023-03-05T00:48:00.441Z,13.93
2023-03-05T00:53:03.451Z,13.93
2023-03-05T00:58:06.193Z,9.20
2023-03-05T01:03:09.248Z,13.63
2023-03-05T01:08:12.030Z,16.02
2023-03-05T01:13:14.847Z,13.57
2023-03-05T01:18:18.360Z,11.13
2023-03-05T01:23:21.318Z,14.60
2023-03-05T01:28:24.100Z,9.93
2023-03-05T01:33:26.921Z,13.48
2023-03-05T01:38:29.668Z,8.85
2023-03-05T01:43:32.439Z,11.95
2023-03-05T01:48:35.191Z,9.13
2023-03-05T01:53:38.012Z,6.78
2023-03-05T01:58:40.888Z,9.40
2023-03-05T02:03:43.796Z,5.72
2023-03-05T02:08:46.640Z,9.43
2023-03-05T02:13:49.587Z,9.50
2023-03-05T02:18:52.449Z,7.78
2023-03-05T02:23:55.247Z,9.25
2023-03-05T02:29:00.173Z,6.32
2023-03-05T02:34:02.942Z,9.30
2023-03-05T02:39:05.777Z,6.85
2023-03-05T02:44:09.671Z,5.13
2023-03-05T02:49:12.663Z,7.88
2023-03-05T02:54:15.481Z,6.95
2023-03-05T02:59:18.446Z,8.98
2023-03-05T03:04:21.987Z,5.85
2023-03-05T03:09:24.665Z,7.57
2023-03-05T03:14:27.438Z,8.48
2023-03-05T03:19:30.204Z,6.78
2023-03-05T03:24:33.540Z,7.60
2023-03-05T03:29:36.318Z,9.02
2023-03-05T03:34:39.026Z,7.97
2023-03-05T03:39:41.820Z,5.38
2023-03-05T03:44:44.657Z,7.40
2023-03-05T03:49:47.461Z,8.73
2023-03-05T03:54:52.607Z,5.65
2023-03-05T03:59:55.463Z,9.30
2023-03-05T04:04:58.154Z,7.00
2023-03-05T04:10:00.912Z,5.28
2023-03-05T04:15:03.933Z,7.25
2023-03-05T04:20:08.485Z,6.53
2023-03-05T04:25:11.295Z,7.85
2023-03-05T04:30:17.477Z,10.07
2023-03-05T04:35:20.317Z,6.53
2023-03-05T04:40:23.337Z,6.22
2023-03-05T04:45:26.054Z,4.57
2023-03-05T04:50:28.891Z,9.10
2023-03-05T04:55:31.682Z,5.97
2023-03-05T05:00:35.815Z,9.57
2023-03-05T05:05:38.519Z,8.18
2023-03-05T05:10:41.592Z,5.35
2023-03-05T05:15:44.092Z,4.78
2023-03-05T05:20:46.823Z,8.48
2023-03-05T05:26:02.151Z,6.65
2023-03-05T05:31:08.721Z,9.60
2023-03-05T05:36:13.644Z,6.65
2023-03-05T05:41:17.959Z,7.70
2023-03-05T05:46:21.675Z,4.95
2023-03-05T05:51:24.536Z,5.80
2023-03-05T05:56:27.620Z,7.28
2023-03-05T06:01:31.922Z,6.85
2023-03-05T06:06:35.310Z,6.35
2023-03-05T06:11:38.828Z,6.35
2023-03-05T06:16:41.596Z,4.43
2023-03-05T06:21:44.504Z,8.35
2023-03-05T06:26:48.936Z,6.07
2023-03-05T06:31:51.691Z,5.60
2023-03-05T06:36:54.589Z,6.95
2023-03-05T06:41:57.187Z,5.35
2023-03-05T06:46:59.724Z,6.53
2023-03-05T06:52:02.622Z,9.05
2023-03-05T06:57:05.126Z,7.60
2023-03-05T07:02:10.041Z,4.88
2023-03-05T07:07:12.945Z,4.45
2023-03-05T07:12:15.774Z,8.63
2023-03-05T07:17:18.794Z,6.60
2023-03-05T07:22:21.693Z,8.38
2023-03-05T07:27:29.632Z,8.45
2023-03-05T07:32:34.879Z,8.25
2023-03-05T07:37:37.671Z,5.13
2023-03-05T07:42:40.420Z,5.40
2023-03-05T07:47:52.274Z,4.85
2023-03-05T07:52:55.173Z,5.15
2023-03-05T07:57:57.973Z,5.63
2023-03-05T08:03:00.792Z,5.43
2023-03-05T08:08:03.667Z,4.63
2023-03-05T08:13:06.542Z,10.23
2023-03-05T08:18:09.332Z,4.90
2023-03-05T08:23:12.040Z,6.35
2023-03-05T08:28:14.610Z,7.85
2023-03-05T08:33:17.886Z,6.47
2023-03-05T08:38:21.218Z,5.88
2023-03-05T08:43:24.030Z,5.93
2023-03-05T08:48:27.207Z,5.53
2023-03-05T08:53:29.790Z,3.33
2023-03-05T08:58:32.563Z,7.35
2023-03-05T09:03:35.399Z,5.15
2023-03-05T09:08:38.742Z,5.00
2023-03-05T09:13:41.428Z,3.72
2023-03-05T09:18:44.575Z,3.60
2023-03-05T09:23:47.774Z,8.13
2023-03-05T09:28:50.639Z,5.30
2023-03-05T09:33:53.393Z,4.32
2023-03-05T09:38:56.713Z,4.80
2023-03-05T09:44:09.517Z,5.22
2023-03-05T09:49:21.586Z,4.22
2023-03-05T09:54:29.329Z,5.50
2023-03-05T09:59:36.437Z,3.00
2023-03-05T10:04:44.425Z,5.10
2023-03-05T10:09:59.245Z,3.83
2023-03-05T10:15:04.301Z,5.45
2023-03-05T10:20:22.124Z,7.38
2023-03-05T10:25:29.808Z,4.72
2023-03-05T10:30:35.934Z,5.53
2023-03-05T10:35:39.694Z,5.95
2023-03-05T10:40:42.411Z,8.93
2023-03-05T10:45:46.635Z,6.13
2023-03-05T10:50:52.158Z,3.30
2023-03-05T10:55:56.918Z,4.10
2023-03-05T11:00:59.805Z,4.18
2023-03-05T11:06:02.929Z,7.07
2023-03-05T11:11:08.326Z,3.42
2023-03-05T11:16:19.919Z,2.70
2023-03-05T11:21:27.922Z,5.35
2023-03-05T11:26:30.838Z,4.93
2023-03-05T11:31:33.834Z,4.53
2023-03-05T11:36:36.531Z,4.30
2023-03-05T11:41:45.449Z,3.53
2023-03-05T11:46:50.044Z,4.93
2023-03-05T11:51:52.640Z,3.28
2023-03-05T11:56:55.835Z,3.85
2023-03-05T12:01:59.140Z,3.35
2023-03-05T12:07:03.346Z,4.03
2023-03-05T12:12:24.980Z,4.97
2023-03-05T12:17:33.778Z,3.72
2023-03-05T12:22:40.921Z,3.13
2023-03-05T12:27:43.675Z,3.03
2023-03-05T12:32:46.646Z,4.60
2023-03-05T12:37:52.092Z,4.65
2023-03-05T12:42:58.976Z,3.47
2023-03-05T12:48:02.171Z,4.40
2023-03-05T12:53:04.945Z,4.22
2023-03-05T12:58:12.867Z,3.50
2023-03-05T13:03:21.179Z,3.50
2023-03-05T13:08:23.727Z,3.85
2023-03-05T13:13:27.293Z,2.40
2023-03-05T13:18:31.315Z,3.25
2023-03-05T13:23:35.077Z,4.38
2023-03-05T13:28:42.206Z,4.78
2023-03-05T13:33:56.343Z,3.90
2023-03-05T13:39:00.129Z,4.43
2023-03-05T13:44:03.229Z,3.47
2023-03-05T13:49:26.352Z,2.25
2023-03-05T13:54:29.485Z,3.63
2023-03-05T13:59:34.286Z,2.70
2023-03-05T14:04:38.039Z,4.57
2023-03-05T14:09:41.195Z,3.25
2023-03-05T14:14:44.646Z,1.90
2023-03-05T14:19:47.949Z,4.68
2023-03-05T14:24:54.065Z,1.55
2023-03-05T14:29:57.064Z,3.45
2023-03-05T14:35:01.090Z,2.88
2023-03-05T14:40:07.968Z,5.55
2023-03-05T14:45:13.101Z,4.85
2023-03-05T14:50:16.675Z,3.97
2023-03-05T14:55:21.048Z,4.57
2023-03-05T15:00:29.221Z,5.00
2023-03-05T15:05:32.061Z,2.97
2023-03-05T15:10:34.890Z,5.65
2023-03-05T15:15:38.854Z,3.95
2023-03-05T15:20:41.599Z,2.72
2023-03-05T15:25:44.549Z,2.67
2023-03-05T15:30:47.727Z,3.35
2023-03-05T15:35:50.757Z,2.95
2023-03-05T15:40:53.655Z,5.40
2023-03-05T15:45:56.572Z,3.03
2023-03-05T15:50:59.309Z,4.63
2023-03-05T15:56:02.176Z,1.75
2023-03-05T16:01:05.313Z,3.03
2023-03-05T16:06:09.132Z,3.38
2023-03-05T16:11:11.985Z,2.97
2023-03-05T16:16:15.491Z,3.90
2023-03-05T16:21:18.206Z,5.63
2023-03-05T16:26:20.987Z,7.45
2023-03-05T16:31:23.795Z,3.42
2023-03-05T16:36:27.502Z,5.10
2023-03-05T16:41:30.385Z,6.57
2023-03-05T16:46:35.162Z,4.30
2023-03-05T16:51:37.844Z,7.40
2023-03-05T16:56:40.632Z,6.45
2023-03-05T17:01:43.252Z,6.40
2023-03-05T17:06:47.160Z,4.57
2023-03-05T17:11:50.071Z,5.28
2023-03-05T17:16:52.674Z,6.10
2023-03-05T17:21:55.236Z,2.70
2023-03-05T17:26:57.944Z,5.13
2023-03-05T17:32:00.803Z,4.05
2023-03-05T17:37:04.616Z,5.32
2023-03-05T17:42:07.214Z,4.88
2023-03-05T17:47:09.783Z,4.53
2023-03-05T17:52:12.497Z,3.35
2023-03-05T17:57:14.995Z,6.53
2023-03-05T18:02:17.903Z,5.53
2023-03-05T18:07:20.628Z,2.92
2023-03-05T18:12:23.456Z,4.80
2023-03-05T18:17:27.315Z,4.30
2023-03-05T18:22:30.429Z,2.80
2023-03-05T18:27:35.462Z,5.93
2023-03-05T18:32:38.576Z,3.92
2023-03-05T18:37:41.066Z,5.13
2023-03-05T18:42:43.540Z,5.97
2023-03-05T18:47:47.217Z,4.75
2023-03-05T18:52:50.203Z,6.32
2023-03-05T18:57:53.046Z,5.97
2023-03-05T19:02:56.847Z,5.78
2023-03-05T19:08:00.668Z,13.38
2023-03-05T19:13:26.173Z,7.75
2023-03-05T19:18:43.182Z,6.65
2023-03-05T19:23:48.728Z,5.25
2023-03-05T19:28:51.417Z,5.97
2023-03-05T19:33:54.637Z,8.02
2023-03-05T19:38:57.297Z,6.82
2023-03-05T19:43:59.971Z,5.40
2023-03-05T19:49:02.731Z,5.93
2023-03-05T19:54:05.881Z,6.05
2023-03-05T19:59:09.331Z,6.50
2023-03-05T20:04:13.764Z,6.07
2023-03-05T20:09:16.834Z,4.30
2023-03-05T20:14:19.693Z,6.13
2023-03-05T20:19:22.360Z,4.55
2023-03-05T20:24:25.117Z,3.17
2023-03-05T20:29:30.767Z,7.75
2023-03-05T20:34:33.229Z,5.35
2023-03-05T20:39:35.823Z,6.13
2023-03-05T20:44:38.621Z,6.97
2023-03-05T20:49:41.209Z,8.57
2023-03-05T20:54:47.944Z,5.88
2023-03-05T20:59:50.789Z,6.10
2023-03-05T21:04:53.519Z,5.90
2023-03-05T21:09:56.080Z,9.00
2023-03-05T21:15:00.241Z,4.63
2023-03-05T21:20:04.724Z,5.07
2023-03-05T21:25:21.027Z,4.97
2023-03-05T21:30:28.596Z,4.32
2023-03-05T21:35:33.128Z,4.28
2023-03-05T21:40:37.000Z,4.00
2023-03-05T21:45:40.369Z,4.32
2023-03-05T21:50:44.052Z,5.15
2023-03-05T21:56:05.421Z,6.65
2023-03-05T22:01:21.353Z,4.47
2023-03-05T22:06:24.178Z,8.95
2023-03-05T22:11:26.961Z,4.85
2023-03-05T22:16:30.195Z,5.60
2023-03-05T22:21:32.938Z,7.15
2023-03-05T22:26:37.958Z,5.85
2023-03-05T22:31:40.781Z,7.90
2023-03-05T22:36:43.345Z,6.18
2023-03-05T22:41:46.108Z,6.90
2023-03-05T22:46:50.750Z,4.95
2023-03-05T22:51:53.276Z,8.10
2023-03-05T22:56:55.763Z,7.93
2023-03-05T23:01:58.339Z,11.07
2023-03-05T23:07:00.874Z,9.27
2023-03-05T23:12:03.693Z,8.15
2023-03-05T23:17:06.451Z,8.18
2023-03-05T23:22:09.906Z,8.02
2023-03-05T23:27:25.166Z,8.48
2023-03-05T23:32:28.977Z,7.80
2023-03-05T23:37:31.781Z,9.13
2023-03-05T23:42:41.426Z,10.82
2023-03-05T23:47:53.185Z,9.43
2023-03-05T23:52:56.190Z,11.57
2023-03-05T23:57:59.176Z,9.55
